EIDW Airport Information

Runway Information
Runway 10 Length 8652 ft width 148 ft
Elevation 242 ft Threshold 0 ft Heading 95
Runway 28 Length 8652 ft Width 148 ft
Elevation 202 ft Threshold 0 ft Heading 275
Runway 11 Length 4393 ft width 200 ft
Elevation 217 ft Threshold 279 ft Heading 105
Runway 29 Length 4393 ft Width 200 ft
Elevation 216 ft Threshold 0 ft Heading 285
Runway 16 Length 6798 ft width 200 ft
Elevation 217 ft Threshold 0 ft Heading 157
Runway 34 Length 6798 ft Width 200 ft
Elevation 202 ft Threshold 0 ft Heading 337
Airport Frequencies
Type APP Name APP Frequency 121.1 MHZ
Type ATIS Name ATIS Frequency 124.525 MHZ
Type CLD Name CLNC DEL Frequency 121.875 MHZ
Type GND Name GND Frequency 121.8 MHZ
Type INFO Name FIS Frequency 118.5 MHZ
Type TWR Name TWR Frequency 118.6 MHZ
Airport Navaids
Type VOR-DME Name Dublin Frequency 111200 KHZ
Type VOR-DME Name Dublin Frequency 114900 KHZ
Type NDB Name Garristown Frequency 407 KHZ
Type NDB-DME Name Gormanston Frequency 334 KHZ
Type DME Name Dublin Frequency 108900 KHZ
Type NDB Name Killiney Frequency 378 KHZ
Type NDB Name Rush Frequency 326 KHZ
Airport Weather Information & NOTAM
ADDS - METARS form results

(2012 UTC 16 July 2018)
 
METAR text: EIDW 162000Z 30006KT 9999 FEW022 SCT060 BKN080 16/10 Q1014 NOSIG
Conditions at: EIDW (DUBLIN AIRPORT , IE) observed 2000 UTC 16 July 2018
Temperature: 16.0°C (61°F)
Dewpoint: 10.0°C (50°F) [RH = 68%]
Pressure (altimeter): 29.94 inches Hg (1014.0 mb)
Winds: from the WNW (300 degrees) at 7 MPH (6 knots; 3.1 m/s)
Visibility: 6 or more miles (10+ km)
Ceiling: 8000 feet AGL
Clouds: few clouds at 2200 feet AGL
scattered clouds at 6000 feet AGL
broken clouds at 8000 feet AGL
Weather: no significant weather observed at this time

METAR text: EIDW 161930Z 30006KT 9999 FEW022 BKN050 16/10 Q1014 NOSIG
Conditions at: EIDW (DUBLIN AIRPORT , IE) observed 1930 UTC 16 July 2018
Temperature: 16.0°C (61°F)
Dewpoint: 10.0°C (50°F) [RH = 68%]
Pressure (altimeter): 29.94 inches Hg (1014.0 mb)
Winds: from the WNW (300 degrees) at 7 MPH (6 knots; 3.1 m/s)
Visibility: 6 or more miles (10+ km)
Ceiling: 5000 feet AGL
Clouds: few clouds at 2200 feet AGL
broken clouds at 5000 feet AGL
Weather: no significant weather observed at this time